createdAt,value
2023-03-02T00:06:01.214Z,-3.80
2023-03-02T00:12:04.854Z,-3.80
2023-03-02T00:18:06.728Z,-3.80
2023-03-02T00:24:08.749Z,-3.80
2023-03-02T00:30:12.372Z,-3.80
2023-03-02T00:36:19.080Z,-3.90
2023-03-02T00:42:21.346Z,-4.00
2023-03-02T00:48:23.157Z,-4.00
2023-03-02T00:54:24.986Z,-4.00
2023-03-02T01:00:29.971Z,-4.00
2023-03-02T01:06:46.160Z,-4.10
2023-03-02T01:12:47.899Z,-4.00
2023-03-02T01:18:49.678Z,-3.90
2023-03-02T01:24:51.927Z,-3.90
2023-03-02T01:30:54.406Z,-4.00
2023-03-02T01:36:56.440Z,-4.10
2023-03-02T01:43:02.500Z,-4.10
2023-03-02T01:49:07.378Z,-4.20
2023-03-02T01:55:24.759Z,-4.40
2023-03-02T02:01:29.117Z,-4.40
2023-03-02T02:07:31.240Z,-4.30
2023-03-02T02:13:33.288Z,-4.30
2023-03-02T02:20:11.990Z,-4.20
2023-03-02T02:26:20.791Z,-4.20
2023-03-02T02:32:26.889Z,-4.30
2023-03-02T02:38:29.232Z,-4.30
2023-03-02T02:44:31.931Z,-4.30
2023-03-02T02:50:35.624Z,-4.30
2023-03-02T02:56:39.722Z,-4.40
2023-03-02T03:02:47.639Z,-4.40
2023-03-02T03:08:54.163Z,-4.50
2023-03-02T03:15:02.738Z,-4.60
2023-03-02T03:21:05.136Z,-4.80
2023-03-02T03:27:11.378Z,-4.90
2023-03-02T03:33:16.241Z,-4.90
2023-03-02T03:39:19.861Z,-4.80
2023-03-02T03:45:25.463Z,-4.80
2023-03-02T03:51:35.786Z,-4.80
2023-03-02T03:57:42.753Z,-4.80
2023-03-02T04:03:46.829Z,-4.90
2023-03-02T04:09:49.999Z,-5.00
2023-03-02T04:15:52.755Z,-4.90
2023-03-02T04:21:55.467Z,-5.00
2023-03-02T04:27:58.484Z,-5.10
2023-03-02T04:34:04.320Z,-5.20
2023-03-02T04:40:09.509Z,-5.20
2023-03-02T04:46:22.160Z,-5.30
2023-03-02T04:52:25.146Z,-5.30
2023-03-02T04:58:26.939Z,-5.30
2023-03-02T05:04:29.197Z,-5.30
2023-03-02T05:10:30.986Z,-5.40
2023-03-02T05:16:35.947Z,-5.60
2023-03-02T05:22:38.276Z,-5.70
2023-03-02T05:28:40.808Z,-5.70
2023-03-02T05:34:42.538Z,-5.80
2023-03-02T05:40:44.412Z,-5.70
2023-03-02T05:46:46.448Z,-5.70
2023-03-02T05:52:48.538Z,-5.80
2023-03-02T05:58:50.344Z,-5.80
2023-03-02T06:04:52.070Z,-5.70
2023-03-02T06:10:57.084Z,-5.70
2023-03-02T06:16:59.085Z,-5.70
2023-03-02T06:23:00.897Z,-5.60
2023-03-02T06:29:02.903Z,-5.60
2023-03-02T06:35:06.301Z,-5.50
2023-03-02T06:41:08.076Z,-5.40
2023-03-02T06:47:09.833Z,-5.20
2023-03-02T06:53:11.580Z,-5.00
2023-03-02T06:59:13.384Z,-4.80
2023-03-02T07:05:15.250Z,-4.60
2023-03-02T07:11:17.117Z,-4.40
2023-03-02T07:17:18.916Z,-4.10
2023-03-02T07:23:20.726Z,-3.70
2023-03-02T07:29:22.479Z,-3.20
2023-03-02T07:35:24.264Z,-2.90
2023-03-02T07:41:26.040Z,-2.50
2023-03-02T07:47:27.823Z,-2.20
2023-03-02T07:53:29.672Z,-1.80
2023-03-02T07:59:31.403Z,-1.50
2023-03-02T08:05:33.226Z,-1.20
2023-03-02T08:11:35.325Z,-0.70
2023-03-02T08:17:37.443Z,-0.30
2023-03-02T08:23:39.325Z,0.00
2023-03-02T08:29:41.239Z,0.20
2023-03-02T08:35:43.025Z,0.60
2023-03-02T08:41:44.835Z,0.80
2023-03-02T08:47:46.612Z,1.00
2023-03-02T08:53:50.535Z,1.30
2023-03-02T08:59:52.678Z,1.50
2023-03-02T09:05:54.693Z,1.80
2023-03-02T09:11:56.481Z,2.10
2023-03-02T09:17:58.253Z,2.40
2023-03-02T09:24:00.064Z,2.50
2023-03-02T09:30:01.839Z,2.70
2023-03-02T09:36:08.671Z,3.00
2023-03-02T09:42:16.441Z,3.30
2023-03-02T09:48:28.929Z,3.50
2023-03-02T09:54:31.085Z,3.80
2023-03-02T10:00:39.368Z,4.00
2023-03-02T10:06:41.104Z,4.10
2023-03-02T10:12:53.263Z,4.40
2023-03-02T10:19:20.774Z,4.50
2023-03-02T10:25:36.417Z,4.70
2023-03-02T10:31:41.147Z,4.90
2023-03-02T10:37:42.956Z,5.00
2023-03-02T10:43:52.018Z,5.20
2023-03-02T10:49:55.711Z,5.40
2023-03-02T10:55:57.488Z,5.70
2023-03-02T11:02:08.599Z,5.80
2023-03-02T11:08:17.942Z,6.00
2023-03-02T11:14:19.754Z,6.30
2023-03-02T11:20:29.815Z,6.50
2023-03-02T11:26:38.614Z,6.70
2023-03-02T11:32:47.770Z,6.90
2023-03-02T11:38:55.886Z,7.00
2023-03-02T11:45:15.491Z,7.00
2023-03-02T11:51:26.291Z,7.30
2023-03-02T11:57:45.380Z,7.40
2023-03-02T12:03:47.381Z,7.40
2023-03-02T12:10:07.701Z,7.60
2023-03-02T12:16:38.962Z,7.80
2023-03-02T12:22:41.292Z,7.90
2023-03-02T12:28:43.032Z,7.90
2023-03-02T12:35:08.368Z,7.90
2023-03-02T12:41:22.163Z,8.10
2023-03-02T12:47:30.036Z,8.20
2023-03-02T12:53:32.375Z,8.20
2023-03-02T12:59:34.406Z,8.10
2023-03-02T13:05:36.467Z,8.10
2023-03-02T13:11:39.028Z,8.20
2023-03-02T13:17:41.112Z,8.30
2023-03-02T13:23:51.655Z,8.40
2023-03-02T13:29:55.622Z,8.40
2023-03-02T13:35:57.924Z,8.60
2023-03-02T13:42:01.939Z,8.80
2023-03-02T13:48:17.464Z,8.70
2023-03-02T13:54:34.898Z,8.70
2023-03-02T14:00:38.846Z,8.60
2023-03-02T14:06:40.619Z,8.80
2023-03-02T14:12:47.855Z,8.60
2023-03-02T14:18:50.994Z,8.60
2023-03-02T14:24:53.656Z,8.70
2023-03-02T14:30:57.610Z,8.70
2023-03-02T14:37:02.958Z,8.70
2023-03-02T14:43:05.501Z,8.60
2023-03-02T14:49:07.217Z,8.60
2023-03-02T14:55:14.319Z,8.50
2023-03-02T15:01:17.544Z,8.30
2023-03-02T15:07:21.299Z,8.20
2023-03-02T15:13:23.028Z,8.10
2023-03-02T15:19:24.855Z,8.00
2023-03-02T15:25:27.527Z,7.80
2023-03-02T15:31:29.574Z,7.50
2023-03-02T15:37:31.385Z,7.30
2023-03-02T15:43:33.381Z,7.20
2023-03-02T15:49:35.385Z,7.00
2023-03-02T15:55:40.667Z,6.70
2023-03-02T16:01:42.449Z,6.50
2023-03-02T16:07:44.622Z,6.30
2023-03-02T16:13:46.400Z,6.20
2023-03-02T16:19:48.190Z,5.90
2023-03-02T16:25:50.260Z,5.70
2023-03-02T16:31:52.647Z,5.30
2023-03-02T16:37:54.855Z,5.10
2023-03-02T16:43:58.564Z,4.80
2023-03-02T16:50:00.329Z,4.20
2023-03-02T16:56:02.467Z,3.60
2023-03-02T17:02:04.302Z,3.10
2023-03-02T17:08:10.084Z,2.70
2023-03-02T17:14:11.963Z,2.40
2023-03-02T17:20:14.445Z,2.00
2023-03-02T17:26:17.304Z,1.80
2023-03-02T17:32:19.435Z,1.60
2023-03-02T17:38:21.607Z,1.50
2023-03-02T17:44:23.474Z,1.40
2023-03-02T17:50:26.374Z,1.20
2023-03-02T17:56:28.621Z,1.10
2023-03-02T18:02:30.347Z,1.30
2023-03-02T18:08:33.186Z,1.40
2023-03-02T18:14:36.136Z,1.60
2023-03-02T18:20:38.184Z,1.70
2023-03-02T18:26:40.017Z,1.80
2023-03-02T18:32:41.832Z,1.70
2023-03-02T18:38:43.746Z,1.80
2023-03-02T18:44:45.591Z,1.90
2023-03-02T18:50:48.639Z,1.90
2023-03-02T18:56:50.462Z,1.70
2023-03-02T19:02:52.343Z,1.50
2023-03-02T19:08:54.723Z,1.40
2023-03-02T19:14:56.500Z,1.50
2023-03-02T19:20:58.393Z,1.50
2023-03-02T19:27:00.516Z,1.60
2023-03-02T19:33:03.586Z,1.70
2023-03-02T19:39:05.520Z,1.60
2023-03-02T19:45:14.484Z,1.60
2023-03-02T19:51:16.809Z,1.60
2023-03-02T19:57:18.993Z,1.60
2023-03-02T20:03:20.786Z,1.60
2023-03-02T20:09:24.178Z,1.60
2023-03-02T20:15:28.015Z,1.70
2023-03-02T20:21:32.538Z,1.70
2023-03-02T20:27:34.369Z,1.80
2023-03-02T20:33:41.078Z,1.80
2023-03-02T20:39:45.388Z,1.90
2023-03-02T20:45:47.672Z,1.80
2023-03-02T20:51:54.580Z,1.70
2023-03-02T20:57:57.156Z,1.70
2023-03-02T21:04:01.555Z,1.70
2023-03-02T21:10:13.309Z,1.70
2023-03-02T21:16:21.672Z,1.70
2023-03-02T21:22:23.453Z,1.60
2023-03-02T21:28:25.242Z,1.50
2023-03-02T21:34:26.988Z,1.60
2023-03-02T21:40:32.316Z,1.70
2023-03-02T21:46:35.834Z,1.60
2023-03-02T21:52:39.921Z,1.50
2023-03-02T21:58:41.932Z,1.40
2023-03-02T22:04:43.710Z,1.30
2023-03-02T22:10:48.552Z,1.20
2023-03-02T22:16:52.055Z,1.30
2023-03-02T22:22:54.558Z,1.10
2023-03-02T22:29:06.340Z,1.10
2023-03-02T22:35:19.774Z,1.20
2023-03-02T22:41:21.621Z,1.20
2023-03-02T22:47:25.067Z,1.20
2023-03-02T22:53:32.337Z,1.30
2023-03-02T22:59:37.749Z,1.20
2023-03-02T23:05:39.640Z,1.00
2023-03-02T23:11:42.130Z,1.00
2023-03-02T23:17:46.315Z,1.00
2023-03-02T23:23:49.705Z,0.90
2023-03-02T23:29:52.175Z,1.00
2023-03-02T23:35:54.011Z,1.00
2023-03-02T23:41:56.099Z,1.00
2023-03-02T23:47:59.084Z,0.90
2023-03-02T23:54:02.398Z,1.10
